sensor_id;sensor_type;location;lat;lon;timestamp;temperature;humidity
26099;DHT22;13860;52.370;6.764;2024-02-21T00:02:20;10.10;88.20
26099;DHT22;13860;52.370;6.764;2024-02-21T00:05:27;10.10;88.60
26099;DHT22;13860;52.370;6.764;2024-02-21T00:08:36;10.10;88.20
26099;DHT22;13860;52.370;6.764;2024-02-21T00:11:43;10.10;88.50
26099;DHT22;13860;52.370;6.764;2024-02-21T00:14:50;10.10;88.70
26099;DHT22;13860;52.370;6.764;2024-02-21T00:17:57;10.20;88.80
26099;DHT22;13860;52.370;6.764;2024-02-21T00:21:04;10.20;88.50
26099;DHT22;13860;52.370;6.764;2024-02-21T00:24:14;10.10;88.30
26099;DHT22;13860;52.370;6.764;2024-02-21T00:27:19;10.10;88.20
26099;DHT22;13860;52.370;6.764;2024-02-21T00:30:27;10.20;88.30
26099;DHT22;13860;52.370;6.764;2024-02-21T00:33:32;10.20;88.40
26099;DHT22;13860;52.370;6.764;2024-02-21T00:36:40;10.20;88.40
26099;DHT22;13860;52.370;6.764;2024-02-21T00:39:48;10.20;88.20
26099;DHT22;13860;52.370;6.764;2024-02-21T00:42:56;10.30;88.30
26099;DHT22;13860;52.370;6.764;2024-02-21T00:46:01;10.20;88.30
26099;DHT22;13860;52.370;6.764;2024-02-21T00:49:09;10.20;88.40
26099;DHT22;13860;52.370;6.764;2024-02-21T00:52:14;10.30;88.70
26099;DHT22;13860;52.370;6.764;2024-02-21T00:55:25;10.30;88.80
26099;DHT22;13860;52.370;6.764;2024-02-21T00:58:30;10.20;88.40
26099;DHT22;13860;52.370;6.764;2024-02-21T01:01:38;10.20;88.60
26099;DHT22;13860;52.370;6.764;2024-02-21T01:04:45;10.20;88.40
26099;DHT22;13860;52.370;6.764;2024-02-21T01:07:52;10.20;88.40
26099;DHT22;13860;52.370;6.764;2024-02-21T01:11:01;10.30;88.40
26099;DHT22;13860;52.370;6.764;2024-02-21T01:14:08;10.30;88.40
26099;DHT22;13860;52.370;6.764;2024-02-21T01:17:14;10.20;88.10
26099;DHT22;13860;52.370;6.764;2024-02-21T01:20:21;10.20;88.30
26099;DHT22;13860;52.370;6.764;2024-02-21T01:23:27;10.20;88.40
26099;DHT22;13860;52.370;6.764;2024-02-21T01:26:37;10.20;88.40
26099;DHT22;13860;52.370;6.764;2024-02-21T01:29:43;10.30;88.30
26099;DHT22;13860;52.370;6.764;2024-02-21T01:32:51;10.30;88.40
26099;DHT22;13860;52.370;6.764;2024-02-21T01:35:57;10.20;88.10
26099;DHT22;13860;52.370;6.764;2024-02-21T01:39:05;10.30;88.20
26099;DHT22;13860;52.370;6.764;2024-02-21T01:42:13;10.50;88.40
26099;DHT22;13860;52.370;6.764;2024-02-21T01:45:25;10.30;88.40
26099;DHT22;13860;52.370;6.764;2024-02-21T01:48:31;10.30;88.40
26099;DHT22;13860;52.370;6.764;2024-02-21T01:51:39;10.20;88.30
26099;DHT22;13860;52.370;6.764;2024-02-21T01:54:47;10.20;88.30
26099;DHT22;13860;52.370;6.764;2024-02-21T01:57:57;10.30;88.40
26099;DHT22;13860;52.370;6.764;2024-02-21T02:01:03;10.20;88.30
26099;DHT22;13860;52.370;6.764;2024-02-21T02:04:31;10.20;88.30
26099;DHT22;13860;52.370;6.764;2024-02-21T02:07:36;10.20;88.30
26099;DHT22;13860;52.370;6.764;2024-02-21T02:10:44;10.30;88.60
26099;DHT22;13860;52.370;6.764;2024-02-21T02:13:53;10.20;88.30
26099;DHT22;13860;52.370;6.764;2024-02-21T02:17:00;10.30;88.50
26099;DHT22;13860;52.370;6.764;2024-02-21T02:20:07;10.30;88.30
26099;DHT22;13860;52.370;6.764;2024-02-21T02:23:23;10.20;88.10
26099;DHT22;13860;52.370;6.764;2024-02-21T02:26:30;10.20;88.20
26099;DHT22;13860;52.370;6.764;2024-02-21T02:29:38;10.20;88.20
26099;DHT22;13860;52.370;6.764;2024-02-21T02:32:45;10.20;88.10
26099;DHT22;13860;52.370;6.764;2024-02-21T02:35:53;10.20;88.30
26099;DHT22;13860;52.370;6.764;2024-02-21T02:39:01;10.30;88.30
26099;DHT22;13860;52.370;6.764;2024-02-21T02:42:08;10.20;88.40
26099;DHT22;13860;52.370;6.764;2024-02-21T02:45:15;10.20;88.10
26099;DHT22;13860;52.370;6.764;2024-02-21T02:48:23;10.20;88.80
26099;DHT22;13860;52.370;6.764;2024-02-21T02:51:28;10.20;88.30
26099;DHT22;13860;52.370;6.764;2024-02-21T02:54:38;10.30;88.30
26099;DHT22;13860;52.370;6.764;2024-02-21T02:57:44;10.20;88.50
26099;DHT22;13860;52.370;6.764;2024-02-21T03:00:52;10.30;88.50
26099;DHT22;13860;52.370;6.764;2024-02-21T03:03:57;10.30;88.40
26099;DHT22;13860;52.370;6.764;2024-02-21T03:07:05;10.30;88.20
26099;DHT22;13860;52.370;6.764;2024-02-21T03:10:13;10.30;88.20
26099;DHT22;13860;52.370;6.764;2024-02-21T03:13:22;10.30;88.30
26099;DHT22;13860;52.370;6.764;2024-02-21T03:16:28;10.30;88.40
26099;DHT22;13860;52.370;6.764;2024-02-21T03:19:35;10.30;88.30
26099;DHT22;13860;52.370;6.764;2024-02-21T03:22:41;10.30;88.50
26099;DHT22;13860;52.370;6.764;2024-02-21T03:25:51;10.30;88.60
26099;DHT22;13860;52.370;6.764;2024-02-21T03:28:57;10.40;88.60
26099;DHT22;13860;52.370;6.764;2024-02-21T03:32:04;10.40;88.60
26099;DHT22;13860;52.370;6.764;2024-02-21T03:35:10;10.30;88.90
26099;DHT22;13860;52.370;6.764;2024-02-21T03:38:19;10.30;88.40
26099;DHT22;13860;52.370;6.764;2024-02-21T03:41:28;10.30;88.60
26099;DHT22;13860;52.370;6.764;2024-02-21T03:44:36;10.30;88.50
26099;DHT22;13860;52.370;6.764;2024-02-21T03:47:42;10.30;88.70
26099;DHT22;13860;52.370;6.764;2024-02-21T03:50:49;10.40;88.60
26099;DHT22;13860;52.370;6.764;2024-02-21T03:53:55;10.30;88.50
26099;DHT22;13860;52.370;6.764;2024-02-21T03:57:05;10.20;88.30
26099;DHT22;13860;52.370;6.764;2024-02-21T04:00:11;10.20;88.50
26099;DHT22;13860;52.370;6.764;2024-02-21T04:03:19;10.20;88.30
26099;DHT22;13860;52.370;6.764;2024-02-21T04:06:25;10.20;88.50
26099;DHT22;13860;52.370;6.764;2024-02-21T04:09:32;10.20;88.40
26099;DHT22;13860;52.370;6.764;2024-02-21T04:12:41;10.30;88.60
26099;DHT22;13860;52.370;6.764;2024-02-21T04:15:48;10.20;88.60
26099;DHT22;13860;52.370;6.764;2024-02-21T04:18:54;10.20;88.70
26099;DHT22;13860;52.370;6.764;2024-02-21T04:22:02;10.20;89.00
26099;DHT22;13860;52.370;6.764;2024-02-21T04:25:08;10.20;88.70
26099;DHT22;13860;52.370;6.764;2024-02-21T04:28:18;10.10;88.60
26099;DHT22;13860;52.370;6.764;2024-02-21T04:31:23;10.20;88.70
26099;DHT22;13860;52.370;6.764;2024-02-21T04:34:31;10.20;88.70
26099;DHT22;13860;52.370;6.764;2024-02-21T04:37:37;10.20;88.60
26099;DHT22;13860;52.370;6.764;2024-02-21T04:40:45;10.20;88.60
26099;DHT22;13860;52.370;6.764;2024-02-21T04:43:53;10.20;88.70
26099;DHT22;13860;52.370;6.764;2024-02-21T04:47:00;10.20;88.80
26099;DHT22;13860;52.370;6.764;2024-02-21T04:50:07;10.20;88.70
26099;DHT22;13860;52.370;6.764;2024-02-21T04:53:14;10.20;88.60
26099;DHT22;13860;52.370;6.764;2024-02-21T04:56:21;10.20;89.10
26099;DHT22;13860;52.370;6.764;2024-02-21T04:59:31;10.20;88.70
26099;DHT22;13860;52.370;6.764;2024-02-21T05:02:37;10.10;88.70
26099;DHT22;13860;52.370;6.764;2024-02-21T05:05:45;10.10;88.80
26099;DHT22;13860;52.370;6.764;2024-02-21T05:08:50;10.10;88.80
26099;DHT22;13860;52.370;6.764;2024-02-21T05:11:59;10.10;88.80
26099;DHT22;13860;52.370;6.764;2024-02-21T05:15:08;10.10;88.80
26099;DHT22;13860;52.370;6.764;2024-02-21T05:18:16;10.10;89.10
26099;DHT22;13860;52.370;6.764;2024-02-21T05:21:22;10.10;88.70
26099;DHT22;13860;52.370;6.764;2024-02-21T05:24:32;10.10;88.70
26099;DHT22;13860;52.370;6.764;2024-02-21T05:27:38;10.10;88.80
26099;DHT22;13860;52.370;6.764;2024-02-21T05:30:49;10.10;88.80
26099;DHT22;13860;52.370;6.764;2024-02-21T05:33:54;10.10;88.90
26099;DHT22;13860;52.370;6.764;2024-02-21T05:37:05;10.10;88.90
26099;DHT22;13860;52.370;6.764;2024-02-21T05:40:11;10.10;88.90
26099;DHT22;13860;52.370;6.764;2024-02-21T05:43:19;10.00;88.70
26099;DHT22;13860;52.370;6.764;2024-02-21T05:46:27;10.10;88.90
26099;DHT22;13860;52.370;6.764;2024-02-21T05:49:35;10.10;88.90
26099;DHT22;13860;52.370;6.764;2024-02-21T05:52:40;10.10;88.80
26099;DHT22;13860;52.370;6.764;2024-02-21T05:55:48;10.10;88.90
26099;DHT22;13860;52.370;6.764;2024-02-21T05:58:54;10.00;88.80
26099;DHT22;13860;52.370;6.764;2024-02-21T06:02:04;10.20;89.00
26099;DHT22;13860;52.370;6.764;2024-02-21T06:05:10;10.10;89.00
26099;DHT22;13860;52.370;6.764;2024-02-21T06:08:18;10.10;88.80
26099;DHT22;13860;52.370;6.764;2024-02-21T06:11:23;10.10;88.90
26099;DHT22;13860;52.370;6.764;2024-02-21T06:14:31;10.00;88.80
26099;DHT22;13860;52.370;6.764;2024-02-21T06:17:39;10.10;88.90
26099;DHT22;13860;52.370;6.764;2024-02-21T06:20:47;10.20;89.30
26099;DHT22;13860;52.370;6.764;2024-02-21T06:23:52;10.00;88.60
26099;DHT22;13860;52.370;6.764;2024-02-21T06:27:00;10.10;88.80
26099;DHT22;13860;52.370;6.764;2024-02-21T06:30:08;10.10;88.80
26099;DHT22;13860;52.370;6.764;2024-02-21T06:33:18;10.00;88.70
26099;DHT22;13860;52.370;6.764;2024-02-21T06:36:27;10.10;88.90
26099;DHT22;13860;52.370;6.764;2024-02-21T06:39:35;10.10;88.80
26099;DHT22;13860;52.370;6.764;2024-02-21T06:42:43;10.10;88.80
26099;DHT22;13860;52.370;6.764;2024-02-21T06:45:50;10.00;88.70
26099;DHT22;13860;52.370;6.764;2024-02-21T06:49:00;10.00;88.80
26099;DHT22;13860;52.370;6.764;2024-02-21T06:52:08;10.10;89.40
26099;DHT22;13860;52.370;6.764;2024-02-21T06:55:13;10.10;89.20
26099;DHT22;13860;52.370;6.764;2024-02-21T06:58:21;10.10;89.10
26099;DHT22;13860;52.370;6.764;2024-02-21T07:01:27;10.00;88.60
26099;DHT22;13860;52.370;6.764;2024-02-21T07:04:37;10.00;88.70
26099;DHT22;13860;52.370;6.764;2024-02-21T07:07:43;10.10;88.90
26099;DHT22;13860;52.370;6.764;2024-02-21T07:10:51;10.00;88.60
26099;DHT22;13860;52.370;6.764;2024-02-21T07:13:56;10.00;88.80
26099;DHT22;13860;52.370;6.764;2024-02-21T07:17:04;10.10;88.80
26099;DHT22;13860;52.370;6.764;2024-02-21T07:20:12;10.10;89.00
26099;DHT22;13860;52.370;6.764;2024-02-21T07:23:20;10.00;88.60
26099;DHT22;13860;52.370;6.764;2024-02-21T07:26:26;10.00;88.80
26099;DHT22;13860;52.370;6.764;2024-02-21T07:29:33;10.20;88.90
26099;DHT22;13860;52.370;6.764;2024-02-21T07:32:39;10.00;89.40
26099;DHT22;13860;52.370;6.764;2024-02-21T07:35:49;10.10;89.20
26099;DHT22;13860;52.370;6.764;2024-02-21T07:38:55;10.00;88.60
26099;DHT22;13860;52.370;6.764;2024-02-21T07:42:03;10.10;88.90
26099;DHT22;13860;52.370;6.764;2024-02-21T07:45:09;10.10;88.80
26099;DHT22;13860;52.370;6.764;2024-02-21T07:48:20;10.20;88.90
26099;DHT22;13860;52.370;6.764;2024-02-21T07:51:30;10.10;88.70
26099;DHT22;13860;52.370;6.764;2024-02-21T07:54:38;10.10;88.70
26099;DHT22;13860;52.370;6.764;2024-02-21T07:57:46;10.10;88.60
26099;DHT22;13860;52.370;6.764;2024-02-21T08:00:54;10.10;88.80
26099;DHT22;13860;52.370;6.764;2024-02-21T08:03:59;10.00;88.70
26099;DHT22;13860;52.370;6.764;2024-02-21T08:07:11;10.10;88.60
26099;DHT22;13860;52.370;6.764;2024-02-21T08:10:16;10.10;88.60
26099;DHT22;13860;52.370;6.764;2024-02-21T08:13:24;10.10;88.60
26099;DHT22;13860;52.370;6.764;2024-02-21T08:16:31;10.10;89.10
26099;DHT22;13860;52.370;6.764;2024-02-21T08:19:39;10.10;88.60
26099;DHT22;13860;52.370;6.764;2024-02-21T08:22:47;10.10;88.80
26099;DHT22;13860;52.370;6.764;2024-02-21T08:25:54;10.10;88.50
26099;DHT22;13860;52.370;6.764;2024-02-21T08:29:00;10.10;88.50
26099;DHT22;13860;52.370;6.764;2024-02-21T08:32:08;10.20;88.70
26099;DHT22;13860;52.370;6.764;2024-02-21T08:35:13;10.20;89.00
26099;DHT22;13860;52.370;6.764;2024-02-21T08:38:25;10.10;88.50
26099;DHT22;13860;52.370;6.764;2024-02-21T08:41:31;10.20;88.80
26099;DHT22;13860;52.370;6.764;2024-02-21T08:44:59;10.20;88.60
26099;DHT22;13860;52.370;6.764;2024-02-21T08:48:05;10.20;88.50
26099;DHT22;13860;52.370;6.764;2024-02-21T08:51:13;10.20;88.40
26099;DHT22;13860;52.370;6.764;2024-02-21T08:54:22;10.20;88.50
26099;DHT22;13860;52.370;6.764;2024-02-21T08:57:29;10.30;88.50
26099;DHT22;13860;52.370;6.764;2024-02-21T09:00:39;10.30;88.50
26099;DHT22;13860;52.370;6.764;2024-02-21T09:03:46;10.40;88.80
26099;DHT22;13860;52.370;6.764;2024-02-21T09:06:56;10.40;88.60
26099;DHT22;13860;52.370;6.764;2024-02-21T09:10:08;10.40;88.50
26099;DHT22;13860;52.370;6.764;2024-02-21T09:13:13;10.40;88.50
26099;DHT22;13860;52.370;6.764;2024-02-21T09:16:21;10.40;89.00
26099;DHT22;13860;52.370;6.764;2024-02-21T09:19:27;10.40;88.60
26099;DHT22;13860;52.370;6.764;2024-02-21T09:22:35;10.50;88.40
26099;DHT22;13860;52.370;6.764;2024-02-21T09:25:45;10.50;88.70
26099;DHT22;13860;52.370;6.764;2024-02-21T09:28:53;10.50;88.80
26099;DHT22;13860;52.370;6.764;2024-02-21T09:31:59;10.70;88.80
26099;DHT22;13860;52.370;6.764;2024-02-21T09:35:07;10.60;88.80
26099;DHT22;13860;52.370;6.764;2024-02-21T09:38:15;10.60;88.40
26099;DHT22;13860;52.370;6.764;2024-02-21T09:41:26;10.70;88.50
26099;DHT22;13860;52.370;6.764;2024-02-21T09:44:36;10.70;88.50
26099;DHT22;13860;52.370;6.764;2024-02-21T09:47:55;10.70;88.50
26099;DHT22;13860;52.370;6.764;2024-02-21T09:51:04;10.80;88.40
26099;DHT22;13860;52.370;6.764;2024-02-21T09:54:12;10.70;88.10
26099;DHT22;13860;52.370;6.764;2024-02-21T09:57:22;10.80;88.20
26099;DHT22;13860;52.370;6.764;2024-02-21T10:00:30;10.80;88.60
26099;DHT22;13860;52.370;6.764;2024-02-21T10:03:36;10.80;88.10
26099;DHT22;13860;52.370;6.764;2024-02-21T10:06:44;10.90;88.10
26099;DHT22;13860;52.370;6.764;2024-02-21T10:10:00;10.80;88.30
26099;DHT22;13860;52.370;6.764;2024-02-21T10:13:23;10.90;88.10
26099;DHT22;13860;52.370;6.764;2024-02-21T10:16:29;10.80;87.70
26099;DHT22;13860;52.370;6.764;2024-02-21T10:19:37;10.80;87.70
26099;DHT22;13860;52.370;6.764;2024-02-21T10:22:43;10.90;88.10
26099;DHT22;13860;52.370;6.764;2024-02-21T10:25:51;10.90;88.50
26099;DHT22;13860;52.370;6.764;2024-02-21T10:29:01;10.90;88.30
26099;DHT22;13860;52.370;6.764;2024-02-21T10:32:10;11.00;87.90
26099;DHT22;13860;52.370;6.764;2024-02-21T10:35:25;10.90;87.90
26099;DHT22;13860;52.370;6.764;2024-02-21T10:38:35;11.00;87.70
26099;DHT22;13860;52.370;6.764;2024-02-21T10:41:41;11.00;87.90
26099;DHT22;13860;52.370;6.764;2024-02-21T10:44:52;11.10;87.90
26099;DHT22;13860;52.370;6.764;2024-02-21T10:48:06;11.00;87.80
26099;DHT22;13860;52.370;6.764;2024-02-21T10:51:17;11.10;88.10
26099;DHT22;13860;52.370;6.764;2024-02-21T10:54:39;11.10;87.90
26099;DHT22;13860;52.370;6.764;2024-02-21T10:57:47;11.10;87.70
26099;DHT22;13860;52.370;6.764;2024-02-21T11:00:55;11.10;87.70
26099;DHT22;13860;52.370;6.764;2024-02-21T11:04:04;11.10;87.70
26099;DHT22;13860;52.370;6.764;2024-02-21T11:07:11;11.20;87.60
26099;DHT22;13860;52.370;6.764;2024-02-21T11:10:23;11.20;87.60
26099;DHT22;13860;52.370;6.764;2024-02-21T11:13:34;11.20;87.70
26099;DHT22;13860;52.370;6.764;2024-02-21T11:16:45;11.30;87.50
26099;DHT22;13860;52.370;6.764;2024-02-21T11:19:51;11.30;87.60
26099;DHT22;13860;52.370;6.764;2024-02-21T11:22:59;11.30;87.70
26099;DHT22;13860;52.370;6.764;2024-02-21T11:26:06;11.30;87.30
26099;DHT22;13860;52.370;6.764;2024-02-21T11:29:23;11.30;87.30
26099;DHT22;13860;52.370;6.764;2024-02-21T11:32:31;11.30;87.20
26099;DHT22;13860;52.370;6.764;2024-02-21T11:35:39;11.30;87.20
26099;DHT22;13860;52.370;6.764;2024-02-21T11:38:45;11.40;87.70
26099;DHT22;13860;52.370;6.764;2024-02-21T11:42:02;11.40;87.20
26099;DHT22;13860;52.370;6.764;2024-02-21T11:45:09;11.40;87.00
26099;DHT22;13860;52.370;6.764;2024-02-21T11:48:20;11.40;87.50
26099;DHT22;13860;52.370;6.764;2024-02-21T11:51:25;11.40;87.00
26099;DHT22;13860;52.370;6.764;2024-02-21T11:54:34;11.50;87.00
26099;DHT22;13860;52.370;6.764;2024-02-21T11:57:39;11.40;87.40
26099;DHT22;13860;52.370;6.764;2024-02-21T12:00:49;11.40;86.90
26099;DHT22;13860;52.370;6.764;2024-02-21T12:03:57;11.40;86.90
26099;DHT22;13860;52.370;6.764;2024-02-21T12:07:05;11.40;86.80
26099;DHT22;13860;52.370;6.764;2024-02-21T12:10:11;11.30;87.50
26099;DHT22;13860;52.370;6.764;2024-02-21T12:13:22;11.30;86.80
26099;DHT22;13860;52.370;6.764;2024-02-21T12:16:28;11.40;86.80
26099;DHT22;13860;52.370;6.764;2024-02-21T12:19:38;11.30;86.70
26099;DHT22;13860;52.370;6.764;2024-02-21T12:22:44;11.40;86.70
26099;DHT22;13860;52.370;6.764;2024-02-21T12:25:52;11.40;86.90
26099;DHT22;13860;52.370;6.764;2024-02-21T12:28:57;11.20;86.60
26099;DHT22;13860;52.370;6.764;2024-02-21T12:32:05;11.30;86.50
26099;DHT22;13860;52.370;6.764;2024-02-21T12:35:14;11.30;86.50
26099;DHT22;13860;52.370;6.764;2024-02-21T12:38:22;11.20;86.40
26099;DHT22;13860;52.370;6.764;2024-02-21T12:41:28;11.30;86.50
26099;DHT22;13860;52.370;6.764;2024-02-21T12:44:36;11.20;86.40
26099;DHT22;13860;52.370;6.764;2024-02-21T12:47:42;11.20;86.40
26099;DHT22;13860;52.370;6.764;2024-02-21T12:50:52;11.20;86.50
26099;DHT22;13860;52.370;6.764;2024-02-21T12:53:58;11.20;86.70
26099;DHT22;13860;52.370;6.764;2024-02-21T12:57:07;11.20;86.60
26099;DHT22;13860;52.370;6.764;2024-02-21T13:00:13;11.20;86.60
26099;DHT22;13860;52.370;6.764;2024-02-21T13:03:21;11.10;86.30
26099;DHT22;13860;52.370;6.764;2024-02-21T13:06:29;11.20;86.40
26099;DHT22;13860;52.370;6.764;2024-02-21T13:09:37;11.20;86.40
26099;DHT22;13860;52.370;6.764;2024-02-21T13:12:43;11.10;86.20
26099;DHT22;13860;52.370;6.764;2024-02-21T13:15:50;11.10;86.30
26099;DHT22;13860;52.370;6.764;2024-02-21T13:18:56;11.10;86.20
26099;DHT22;13860;52.370;6.764;2024-02-21T13:22:06;11.20;86.20
26099;DHT22;13860;52.370;6.764;2024-02-21T13:25:12;11.10;86.00
26099;DHT22;13860;52.370;6.764;2024-02-21T13:28:22;11.10;86.10
26099;DHT22;13860;52.370;6.764;2024-02-21T13:31:31;11.10;86.30
26099;DHT22;13860;52.370;6.764;2024-02-21T13:34:38;11.10;86.50
26099;DHT22;13860;52.370;6.764;2024-02-21T13:37:47;11.20;86.40
26099;DHT22;13860;52.370;6.764;2024-02-21T13:40:55;11.20;86.40
26099;DHT22;13860;52.370;6.764;2024-02-21T13:44:03;11.20;86.40
26099;DHT22;13860;52.370;6.764;2024-02-21T13:47:12;11.20;86.30
26099;DHT22;13860;52.370;6.764;2024-02-21T13:50:21;11.30;86.20
26099;DHT22;13860;52.370;6.764;2024-02-21T13:53:35;11.30;86.10
26099;DHT22;13860;52.370;6.764;2024-02-21T13:56:40;11.30;86.00
26099;DHT22;13860;52.370;6.764;2024-02-21T13:59:48;11.40;86.10
26099;DHT22;13860;52.370;6.764;2024-02-21T14:02:54;11.30;86.00
26099;DHT22;13860;52.370;6.764;2024-02-21T14:06:03;11.40;85.90
26099;DHT22;13860;52.370;6.764;2024-02-21T14:09:11;11.40;85.90
26099;DHT22;13860;52.370;6.764;2024-02-21T14:12:19;11.50;86.00
26099;DHT22;13860;52.370;6.764;2024-02-21T14:15:24;11.20;86.10
26099;DHT22;13860;52.370;6.764;2024-02-21T14:18:32;11.40;85.80
26099;DHT22;13860;52.370;6.764;2024-02-21T14:21:37;11.40;85.70
26099;DHT22;13860;52.370;6.764;2024-02-21T14:24:48;11.60;85.90
26099;DHT22;13860;52.370;6.764;2024-02-21T14:27:53;11.50;85.80
26099;DHT22;13860;52.370;6.764;2024-02-21T14:31:00;11.50;85.70
26099;DHT22;13860;52.370;6.764;2024-02-21T14:34:08;11.60;85.70
26099;DHT22;13860;52.370;6.764;2024-02-21T14:37:16;11.60;85.50
26099;DHT22;13860;52.370;6.764;2024-02-21T14:40:24;11.60;85.60
26099;DHT22;13860;52.370;6.764;2024-02-21T14:43:34;11.60;85.60
26099;DHT22;13860;52.370;6.764;2024-02-21T14:46:40;11.60;85.40
26099;DHT22;13860;52.370;6.764;2024-02-21T14:49:47;11.60;85.60
26099;DHT22;13860;52.370;6.764;2024-02-21T14:52:53;11.60;85.50
26099;DHT22;13860;52.370;6.764;2024-02-21T14:56:04;11.60;85.20
26099;DHT22;13860;52.370;6.764;2024-02-21T14:59:09;11.60;85.40
26099;DHT22;13860;52.370;6.764;2024-02-21T15:02:29;11.60;85.20
26099;DHT22;13860;52.370;6.764;2024-02-21T15:05:34;11.60;85.20
26099;DHT22;13860;52.370;6.764;2024-02-21T15:08:43;11.60;85.20
26099;DHT22;13860;52.370;6.764;2024-02-21T15:11:53;11.60;85.20
26099;DHT22;13860;52.370;6.764;2024-02-21T15:15:01;11.60;85.20
26099;DHT22;13860;52.370;6.764;2024-02-21T15:18:07;11.70;84.90
26099;DHT22;13860;52.370;6.764;2024-02-21T15:21:14;11.70;85.10
26099;DHT22;13860;52.370;6.764;2024-02-21T15:24:21;11.60;84.80
26099;DHT22;13860;52.370;6.764;2024-02-21T15:27:31;11.60;85.00
26099;DHT22;13860;52.370;6.764;2024-02-21T15:30:41;11.60;84.60
26099;DHT22;13860;52.370;6.764;2024-02-21T15:33:49;11.70;85.00
26099;DHT22;13860;52.370;6.764;2024-02-21T15:36:55;11.60;84.80
26099;DHT22;13860;52.370;6.764;2024-02-21T15:40:05;11.60;84.50
26099;DHT22;13860;52.370;6.764;2024-02-21T15:43:14;11.50;84.60
26099;DHT22;13860;52.370;6.764;2024-02-21T15:46:22;11.60;84.80
26099;DHT22;13860;52.370;6.764;2024-02-21T15:49:28;11.50;84.50
26099;DHT22;13860;52.370;6.764;2024-02-21T15:52:36;11.50;84.60
26099;DHT22;13860;52.370;6.764;2024-02-21T15:55:41;11.50;84.20
26099;DHT22;13860;52.370;6.764;2024-02-21T15:58:53;11.50;84.40
26099;DHT22;13860;52.370;6.764;2024-02-21T16:01:59;11.50;84.20
26099;DHT22;13860;52.370;6.764;2024-02-21T16:05:08;11.50;84.20
26099;DHT22;13860;52.370;6.764;2024-02-21T16:08:15;11.40;84.20
26099;DHT22;13860;52.370;6.764;2024-02-21T16:11:23;11.50;84.00
26099;DHT22;13860;52.370;6.764;2024-02-21T16:14:32;11.50;84.30
26099;DHT22;13860;52.370;6.764;2024-02-21T16:17:42;11.50;84.00
26099;DHT22;13860;52.370;6.764;2024-02-21T16:20:47;11.50;84.40
26099;DHT22;13860;52.370;6.764;2024-02-21T16:23:55;11.50;84.20
26099;DHT22;13860;52.370;6.764;2024-02-21T16:27:00;11.40;84.20
26099;DHT22;13860;52.370;6.764;2024-02-21T16:30:17;11.30;84.20
26099;DHT22;13860;52.370;6.764;2024-02-21T16:33:22;11.40;84.20
26099;DHT22;13860;52.370;6.764;2024-02-21T16:36:30;11.40;84.50
26099;DHT22;13860;52.370;6.764;2024-02-21T16:39:35;11.40;84.30
26099;DHT22;13860;52.370;6.764;2024-02-21T16:42:43;11.30;84.10
26099;DHT22;13860;52.370;6.764;2024-02-21T16:45:51;11.30;84.40
26099;DHT22;13860;52.370;6.764;2024-02-21T16:48:59;11.30;84.10
26099;DHT22;13860;52.370;6.764;2024-02-21T16:52:05;11.20;84.00
26099;DHT22;13860;52.370;6.764;2024-02-21T16:55:13;11.20;84.10
26099;DHT22;13860;52.370;6.764;2024-02-21T16:58:19;11.10;84.10
26099;DHT22;13860;52.370;6.764;2024-02-21T17:01:34;11.20;84.30
26099;DHT22;13860;52.370;6.764;2024-02-21T17:04:42;11.20;84.20
26099;DHT22;13860;52.370;6.764;2024-02-21T17:07:52;11.10;84.30
26099;DHT22;13860;52.370;6.764;2024-02-21T17:10:57;11.00;84.90
26099;DHT22;13860;52.370;6.764;2024-02-21T17:14:05;11.00;84.50
26099;DHT22;13860;52.370;6.764;2024-02-21T17:17:14;11.00;84.40
26099;DHT22;13860;52.370;6.764;2024-02-21T17:20:21;11.00;84.50
26099;DHT22;13860;52.370;6.764;2024-02-21T17:23:27;11.00;84.50
26099;DHT22;13860;52.370;6.764;2024-02-21T17:26:35;10.80;84.50
26099;DHT22;13860;52.370;6.764;2024-02-21T17:29:41;10.80;84.70
26099;DHT22;13860;52.370;6.764;2024-02-21T17:32:51;10.80;85.30
26099;DHT22;13860;52.370;6.764;2024-02-21T17:35:57;10.70;84.60
26099;DHT22;13860;52.370;6.764;2024-02-21T17:39:06;10.80;84.80
26099;DHT22;13860;52.370;6.764;2024-02-21T17:42:12;10.70;85.00
26099;DHT22;13860;52.370;6.764;2024-02-21T17:45:20;10.60;84.60
26099;DHT22;13860;52.370;6.764;2024-02-21T17:48:28;10.60;84.90
26099;DHT22;13860;52.370;6.764;2024-02-21T17:51:35;10.60;84.90
26099;DHT22;13860;52.370;6.764;2024-02-21T17:54:44;10.60;84.90
26099;DHT22;13860;52.370;6.764;2024-02-21T17:57:51;10.50;85.00
26099;DHT22;13860;52.370;6.764;2024-02-21T18:00:57;10.50;85.80
26099;DHT22;13860;52.370;6.764;2024-02-21T18:04:08;10.50;85.10
26099;DHT22;13860;52.370;6.764;2024-02-21T18:07:14;10.40;85.10
26099;DHT22;13860;52.370;6.764;2024-02-21T18:10:23;10.40;85.10
26099;DHT22;13860;52.370;6.764;2024-02-21T18:13:29;10.40;85.30
26099;DHT22;13860;52.370;6.764;2024-02-21T18:16:36;10.40;85.30
26099;DHT22;13860;52.370;6.764;2024-02-21T18:19:45;10.30;85.20
26099;DHT22;13860;52.370;6.764;2024-02-21T18:22:53;10.30;85.10
26099;DHT22;13860;52.370;6.764;2024-02-21T18:25:58;10.30;85.10
26099;DHT22;13860;52.370;6.764;2024-02-21T18:29:07;10.50;85.40
26099;DHT22;13860;52.370;6.764;2024-02-21T18:32:15;10.30;85.50
26099;DHT22;13860;52.370;6.764;2024-02-21T18:35:25;10.20;85.20
26099;DHT22;13860;52.370;6.764;2024-02-21T18:38:30;10.20;85.20
26099;DHT22;13860;52.370;6.764;2024-02-21T18:41:39;10.20;85.50
26099;DHT22;13860;52.370;6.764;2024-02-21T18:44:46;10.10;85.50
26099;DHT22;13860;52.370;6.764;2024-02-21T18:47:54;10.10;85.40
26099;DHT22;13860;52.370;6.764;2024-02-21T18:51:03;10.10;85.40
26099;DHT22;13860;52.370;6.764;2024-02-21T18:54:10;10.00;85.50
26099;DHT22;13860;52.370;6.764;2024-02-21T18:57:17;10.10;86.30
26099;DHT22;13860;52.370;6.764;2024-02-21T19:00:24;10.00;85.60
26099;DHT22;13860;52.370;6.764;2024-02-21T19:03:30;10.00;85.80
26099;DHT22;13860;52.370;6.764;2024-02-21T19:06:40;10.00;85.80
26099;DHT22;13860;52.370;6.764;2024-02-21T19:09:46;10.00;86.00
26099;DHT22;13860;52.370;6.764;2024-02-21T19:12:53;9.90;86.60
26099;DHT22;13860;52.370;6.764;2024-02-21T19:15:59;9.90;86.10
26099;DHT22;13860;52.370;6.764;2024-02-21T19:19:07;9.90;86.00
26099;DHT22;13860;52.370;6.764;2024-02-21T19:22:15;9.90;86.10
26099;DHT22;13860;52.370;6.764;2024-02-21T19:25:23;9.90;86.30
26099;DHT22;13860;52.370;6.764;2024-02-21T19:28:29;9.90;86.10
26099;DHT22;13860;52.370;6.764;2024-02-21T19:31:36;9.90;86.20
26099;DHT22;13860;52.370;6.764;2024-02-21T19:34:42;9.90;86.20
26099;DHT22;13860;52.370;6.764;2024-02-21T19:37:52;9.70;86.30
26099;DHT22;13860;52.370;6.764;2024-02-21T19:40:59;9.80;86.40
26099;DHT22;13860;52.370;6.764;2024-02-21T19:44:07;9.80;86.50
26099;DHT22;13860;52.370;6.764;2024-02-21T19:47:12;9.80;86.30
26099;DHT22;13860;52.370;6.764;2024-02-21T19:50:20;9.70;86.30